createdAt,value
2022-09-11T00:00:41.871Z,15.82
2022-09-11T00:03:08.445Z,15.80
2022-09-11T00:05:39.801Z,15.77
2022-09-11T00:08:12.002Z,15.74
2022-09-11T00:10:40.755Z,15.74
2022-09-11T00:13:08.087Z,15.73
2022-09-11T00:15:39.295Z,15.74
2022-09-11T00:18:07.710Z,15.82
2022-09-11T00:20:35.194Z,15.75
2022-09-11T00:23:04.897Z,15.81
2022-09-11T00:25:36.056Z,15.75
2022-09-11T00:28:02.922Z,15.73
2022-09-11T00:30:30.051Z,15.76
2022-09-11T00:32:56.427Z,15.73
2022-09-11T00:35:22.821Z,15.76
2022-09-11T00:37:49.230Z,15.74
2022-09-11T00:40:17.261Z,15.75
2022-09-11T00:42:44.406Z,15.69
2022-09-11T00:45:26.411Z,15.70
2022-09-11T00:47:58.346Z,15.77
2022-09-11T00:50:27.932Z,15.66
2022-09-11T00:53:02.467Z,15.66
2022-09-11T00:55:32.455Z,15.67
2022-09-11T00:58:03.967Z,15.67
2022-09-11T01:00:30.799Z,15.67
2022-09-11T01:02:57.906Z,15.58
2022-09-11T01:05:27.644Z,15.53
2022-09-11T01:07:56.036Z,15.55
2022-09-11T01:10:57.791Z,15.47
2022-09-11T01:13:56.931Z,15.38
2022-09-11T01:16:42.848Z,15.32
2022-09-11T01:19:46.352Z,15.27
2022-09-11T01:23:02.849Z,15.34
2022-09-11T01:25:31.933Z,15.31
2022-09-11T01:28:00.986Z,15.26
2022-09-11T01:30:38.367Z,15.23
2022-09-11T01:33:28.066Z,15.21
2022-09-11T01:36:29.034Z,15.20
2022-09-11T01:38:58.507Z,15.20
2022-09-11T01:41:31.981Z,15.20
2022-09-11T01:44:03.987Z,15.25
2022-09-11T01:46:35.896Z,15.28
2022-09-11T01:49:12.723Z,15.31
2022-09-11T01:51:40.457Z,15.38
2022-09-11T01:54:12.876Z,15.43
2022-09-11T01:56:45.373Z,15.38
2022-09-11T01:59:16.322Z,15.40
2022-09-11T02:01:51.165Z,15.38
2022-09-11T02:04:33.741Z,15.36
2022-09-11T02:07:42.440Z,15.37
2022-09-11T02:10:17.115Z,15.42
2022-09-11T02:13:07.314Z,15.44
2022-09-11T02:15:41.624Z,15.43
2022-09-11T02:18:37.862Z,15.40
2022-09-11T02:21:04.355Z,15.41
2022-09-11T02:23:30.774Z,15.44
2022-09-11T02:25:57.175Z,15.42
2022-09-11T02:28:23.908Z,15.44
2022-09-11T02:30:50.388Z,15.45
2022-09-11T02:33:35.904Z,15.46
2022-09-11T02:36:26.279Z,15.47
2022-09-11T02:39:27.384Z,15.50
2022-09-11T02:42:21.982Z,15.49
2022-09-11T02:44:56.654Z,15.48
2022-09-11T02:47:43.558Z,15.50
2022-09-11T02:50:18.981Z,15.53
2022-09-11T02:52:54.487Z,15.51
2022-09-11T02:55:25.240Z,15.50
2022-09-11T02:57:59.286Z,15.53
2022-09-11T03:00:25.741Z,15.50
2022-09-11T03:02:53.530Z,15.51
2022-09-11T03:05:20.571Z,15.54
2022-09-11T03:07:47.162Z,15.55
2022-09-11T03:10:13.631Z,15.49
2022-09-11T03:12:39.987Z,15.53
2022-09-11T03:15:07.214Z,15.49
2022-09-11T03:17:33.625Z,15.54
2022-09-11T03:20:00.003Z,15.52
2022-09-11T03:22:26.398Z,15.53
2022-09-11T03:24:52.763Z,15.51
2022-09-11T03:27:19.152Z,15.53
2022-09-11T03:29:46.387Z,15.56
2022-09-11T03:32:12.807Z,15.54
2022-09-11T03:34:39.125Z,15.53
2022-09-11T03:37:05.436Z,15.54
2022-09-11T03:39:31.782Z,15.53
2022-09-11T03:41:58.284Z,15.52
2022-09-11T03:44:25.515Z,15.46
2022-09-11T03:46:52.981Z,15.49
2022-09-11T03:49:20.279Z,15.43
2022-09-11T03:51:47.768Z,15.55
2022-09-11T03:54:16.016Z,15.51
2022-09-11T03:56:42.939Z,15.43
2022-09-11T03:59:09.349Z,15.49
2022-09-11T04:01:35.687Z,15.41
2022-09-11T04:04:04.611Z,15.41
2022-09-11T04:06:34.628Z,15.42
2022-09-11T04:09:01.289Z,15.43
2022-09-11T04:14:11.092Z,15.44
2022-09-11T04:16:37.831Z,15.43
2022-09-11T04:19:04.652Z,15.42
2022-09-11T04:21:31.777Z,15.47
2022-09-11T04:24:00.234Z,15.41
2022-09-11T04:26:31.572Z,15.43
2022-09-11T04:28:59.033Z,15.41
2022-09-11T04:31:27.535Z,15.43
2022-09-11T04:33:57.484Z,15.37
2022-09-11T04:36:26.893Z,15.37
2022-09-11T04:38:58.195Z,15.33
2022-09-11T04:41:25.391Z,15.30
2022-09-11T04:43:57.600Z,15.34
2022-09-11T04:46:26.925Z,15.31
2022-09-11T04:49:02.297Z,15.25
2022-09-11T04:51:34.696Z,15.31
2022-09-11T04:54:02.027Z,15.24
2022-09-11T04:56:34.261Z,15.32
2022-09-11T04:59:06.814Z,15.32
2022-09-11T05:01:34.079Z,15.32
2022-09-11T05:04:01.580Z,15.25
2022-09-11T05:06:30.405Z,15.29
2022-09-11T05:09:01.691Z,15.29
2022-09-11T05:11:28.145Z,15.34
2022-09-11T05:13:54.495Z,15.27
2022-09-11T05:16:21.131Z,15.27
2022-09-11T05:18:52.473Z,15.25
2022-09-11T05:21:22.537Z,15.25
2022-09-11T05:23:51.274Z,15.28
2022-09-11T05:26:20.169Z,15.24
2022-09-11T05:28:47.063Z,15.23
2022-09-11T05:31:18.146Z,15.24
2022-09-11T05:33:45.444Z,15.36
2022-09-11T05:36:13.574Z,15.26
2022-09-11T05:38:40.115Z,15.21
2022-09-11T05:41:08.720Z,15.21
2022-09-11T05:43:35.417Z,15.21
2022-09-11T05:46:02.174Z,15.23
2022-09-11T05:48:30.319Z,15.29
2022-09-11T05:51:01.970Z,15.27
2022-09-11T05:53:32.822Z,15.26
2022-09-11T05:56:13.905Z,15.30
2022-09-11T05:58:40.323Z,15.31
2022-09-11T06:01:09.336Z,15.25
2022-09-11T06:03:37.278Z,15.26
2022-09-11T06:06:06.544Z,15.29
2022-09-11T06:08:34.510Z,15.28
2022-09-11T06:11:04.133Z,15.27
2022-09-11T06:13:34.054Z,15.31
2022-09-11T06:16:00.649Z,15.36
2022-09-11T06:18:27.021Z,15.39
2022-09-11T06:21:02.448Z,15.29
2022-09-11T06:23:29.069Z,15.30
2022-09-11T06:26:07.711Z,15.27
2022-09-11T06:28:35.778Z,15.36
2022-09-11T06:31:13.388Z,15.31
2022-09-11T06:33:40.998Z,15.31
2022-09-11T06:36:38.949Z,15.37
2022-09-11T06:39:05.471Z,15.32
2022-09-11T06:41:32.694Z,15.32
2022-09-11T06:43:59.151Z,15.33
2022-09-11T06:46:26.371Z,15.36
2022-09-11T06:48:53.787Z,15.33
2022-09-11T06:51:22.409Z,15.40
2022-09-11T06:53:49.106Z,15.51
2022-09-11T06:56:18.205Z,15.52
2022-09-11T06:58:45.861Z,15.54
2022-09-11T07:01:17.682Z,15.54
2022-09-11T07:03:45.600Z,15.54
2022-09-11T07:06:13.489Z,15.55
2022-09-11T07:08:40.169Z,15.51
2022-09-11T07:11:08.222Z,15.54
2022-09-11T07:13:37.424Z,15.50
2022-09-11T07:16:07.687Z,15.43
2022-09-11T07:18:41.258Z,15.48
2022-09-11T07:21:12.937Z,15.51
2022-09-11T07:23:40.928Z,15.57
2022-09-11T07:26:11.259Z,15.74
2022-09-11T07:28:38.714Z,15.93
2022-09-11T07:31:10.435Z,16.07
2022-09-11T07:33:45.479Z,16.21
2022-09-11T07:36:14.375Z,16.33
2022-09-11T07:38:42.692Z,16.32
2022-09-11T07:41:10.661Z,16.31
2022-09-11T07:43:38.635Z,16.37
2022-09-11T07:46:06.255Z,16.33
2022-09-11T07:48:32.811Z,16.17
2022-09-11T07:51:04.924Z,16.19
2022-09-11T07:53:35.465Z,16.17
2022-09-11T07:56:03.851Z,16.22
2022-09-11T07:58:38.996Z,16.20
2022-09-11T08:01:06.426Z,16.07
2022-09-11T08:03:34.299Z,16.02
2022-09-11T08:06:02.271Z,16.04
2022-09-11T08:08:29.286Z,16.04
2022-09-11T08:11:10.227Z,16.01
2022-09-11T08:13:36.980Z,16.11
2022-09-11T08:16:03.642Z,16.23
2022-09-11T08:18:30.914Z,16.27
2022-09-11T08:21:12.631Z,16.12
2022-09-11T08:23:41.392Z,16.18
2022-09-11T08:26:25.832Z,16.33
2022-09-11T08:28:54.368Z,16.39
2022-09-11T08:31:26.250Z,16.52
2022-09-11T08:33:54.680Z,16.55
2022-09-11T08:36:22.643Z,16.54
2022-09-11T08:38:49.280Z,16.58
2022-09-11T08:41:27.511Z,16.71
2022-09-11T08:43:57.965Z,16.70
2022-09-11T08:46:31.025Z,16.77
2022-09-11T08:49:18.906Z,16.81
2022-09-11T08:51:47.114Z,16.83
2022-09-11T08:54:34.558Z,16.81
2022-09-11T08:57:23.319Z,16.62
2022-09-11T09:00:21.847Z,16.62
2022-09-11T09:02:57.238Z,16.57
2022-09-11T09:05:50.077Z,16.62
2022-09-11T09:08:35.092Z,16.66
2022-09-11T09:11:10.720Z,16.69
2022-09-11T09:14:06.313Z,16.74
2022-09-11T09:16:45.377Z,16.83
2022-09-11T09:19:29.225Z,16.80
2022-09-11T09:22:19.093Z,16.94
2022-09-11T09:24:50.028Z,17.14
2022-09-11T09:27:25.596Z,17.33
2022-09-11T09:29:58.462Z,17.52
2022-09-11T09:32:58.528Z,17.66
2022-09-11T09:35:34.593Z,17.75
2022-09-11T09:38:01.024Z,17.81
2022-09-11T09:40:33.271Z,17.78
2022-09-11T09:43:07.950Z,17.80
2022-09-11T09:45:48.528Z,17.83
2022-09-11T09:48:15.352Z,17.84
2022-09-11T09:50:46.057Z,17.80
2022-09-11T09:53:32.417Z,17.72
2022-09-11T09:56:00.511Z,17.58
2022-09-11T09:58:33.696Z,17.57
2022-09-11T10:01:00.458Z,17.57
2022-09-11T10:03:27.049Z,17.59
2022-09-11T10:05:55.893Z,17.67
2022-09-11T10:08:37.520Z,17.86
2022-09-11T10:11:05.853Z,18.05
2022-09-11T10:13:36.745Z,18.32
2022-09-11T10:16:19.165Z,18.33
2022-09-11T10:18:47.057Z,18.27
2022-09-11T10:21:13.752Z,18.29
2022-09-11T10:23:50.580Z,18.49
2022-09-11T10:26:26.846Z,18.57
2022-09-11T10:29:04.956Z,18.69
2022-09-11T10:31:31.444Z,18.67
2022-09-11T10:33:59.590Z,18.61
2022-09-11T10:36:28.603Z,18.46
2022-09-11T10:39:01.004Z,18.43
2022-09-11T10:41:32.122Z,18.74
2022-09-11T10:44:13.033Z,18.84
2022-09-11T10:46:41.930Z,18.77
2022-09-11T10:49:17.415Z,18.79
2022-09-11T10:52:17.230Z,19.11
2022-09-11T10:55:00.021Z,18.88
2022-09-11T10:57:39.804Z,18.72
2022-09-11T11:00:21.025Z,18.77
2022-09-11T11:02:53.742Z,18.98
2022-09-11T11:06:04.671Z,19.23
2022-09-11T11:08:57.358Z,19.06
2022-09-11T11:11:24.159Z,18.91
2022-09-11T11:14:13.232Z,18.98
2022-09-11T11:17:07.662Z,18.62
2022-09-11T11:19:51.889Z,18.67
2022-09-11T11:22:45.305Z,18.97
2022-09-11T11:25:28.511Z,19.06
2022-09-11T11:28:15.069Z,19.26
2022-09-11T11:30:47.509Z,19.39
2022-09-11T11:33:23.949Z,19.47
2022-09-11T11:36:10.318Z,19.59
2022-09-11T11:39:02.000Z,19.71
2022-09-11T11:41:38.992Z,19.43
2022-09-11T11:44:12.137Z,19.36
2022-09-11T11:46:45.002Z,19.49
2022-09-11T11:49:37.700Z,19.22
2022-09-11T11:52:18.033Z,19.36
2022-09-11T11:55:20.639Z,19.71
2022-09-11T11:58:01.293Z,20.01
2022-09-11T12:00:29.660Z,20.41
2022-09-11T12:03:12.935Z,20.55
2022-09-11T12:05:39.449Z,20.72
2022-09-11T12:08:13.165Z,20.74
2022-09-11T12:10:42.937Z,20.74
2022-09-11T12:13:18.313Z,20.70
2022-09-11T12:16:11.280Z,20.42
2022-09-11T12:18:38.627Z,20.72
2022-09-11T12:21:35.613Z,21.11
2022-09-11T12:24:02.607Z,21.34
2022-09-11T12:26:33.213Z,21.72
2022-09-11T12:29:12.240Z,21.62
2022-09-11T12:31:52.273Z,21.61
2022-09-11T12:34:24.784Z,21.59
2022-09-11T12:37:06.851Z,21.37
2022-09-11T12:39:39.476Z,21.24
2022-09-11T12:42:22.885Z,21.17
2022-09-11T12:44:49.245Z,20.97
2022-09-11T12:47:24.533Z,21.24
2022-09-11T12:50:02.455Z,21.35
2022-09-11T12:52:40.151Z,21.67
2022-09-11T12:55:27.878Z,21.92
2022-09-11T12:57:55.003Z,21.91
2022-09-11T13:00:42.119Z,21.60
2022-09-11T13:03:19.058Z,21.55
2022-09-11T13:05:55.150Z,21.59
2022-09-11T13:08:26.159Z,21.50
2022-09-11T13:10:52.731Z,21.03
2022-09-11T13:13:34.617Z,20.90
2022-09-11T13:16:34.870Z,20.69
2022-09-11T13:19:07.465Z,20.66
2022-09-11T13:21:36.730Z,20.84
2022-09-11T13:24:03.834Z,20.84
2022-09-11T13:26:31.429Z,20.95
2022-09-11T13:29:00.853Z,21.08
2022-09-11T13:31:34.697Z,21.18
2022-09-11T13:34:05.787Z,21.32
2022-09-11T13:36:36.205Z,20.84
2022-09-11T13:39:04.263Z,20.75
2022-09-11T13:41:39.973Z,21.09
2022-09-11T13:44:11.889Z,21.25
2022-09-11T13:46:50.429Z,21.38
2022-09-11T13:49:32.336Z,21.50
2022-09-11T13:51:59.222Z,21.58
2022-09-11T13:54:32.324Z,21.07
2022-09-11T13:57:01.515Z,20.98
2022-09-11T13:59:41.482Z,20.96
2022-09-11T14:02:46.848Z,21.15
2022-09-11T14:05:32.517Z,21.54
2022-09-11T14:08:32.703Z,21.66
2022-09-11T14:11:15.641Z,21.89
2022-09-11T14:14:05.240Z,21.76
2022-09-11T14:16:35.208Z,21.72
2022-09-11T14:19:24.525Z,21.88
2022-09-11T14:21:51.279Z,21.96
2022-09-11T14:24:28.471Z,21.85
2022-09-11T14:26:58.513Z,21.88
2022-09-11T14:29:32.639Z,21.75
2022-09-11T14:32:24.169Z,21.88
2022-09-11T14:34:50.509Z,21.78
2022-09-11T14:37:17.454Z,21.93
2022-09-11T14:39:47.855Z,21.82
2022-09-11T14:42:21.566Z,21.85
2022-09-11T14:44:48.504Z,21.84
2022-09-11T14:47:24.410Z,22.04
2022-09-11T14:49:55.759Z,22.03
2022-09-11T14:52:27.631Z,21.87
2022-09-11T14:54:54.559Z,21.89
2022-09-11T14:57:23.771Z,21.97
2022-09-11T14:59:51.175Z,21.81
2022-09-11T15:02:21.218Z,21.67
2022-09-11T15:04:48.734Z,21.67
2022-09-11T15:07:17.055Z,21.79
2022-09-11T15:09:43.655Z,21.80
2022-09-11T15:12:12.179Z,21.83
2022-09-11T15:14:58.240Z,22.08
2022-09-11T15:17:25.560Z,22.22
2022-09-11T15:19:52.612Z,22.14
2022-09-11T15:22:19.512Z,22.20
2022-09-11T15:24:49.002Z,21.95
2022-09-11T15:27:15.674Z,21.94
2022-09-11T15:29:42.507Z,21.85
2022-09-11T15:32:09.729Z,21.89
2022-09-11T15:34:38.585Z,21.86
2022-09-11T15:37:05.370Z,21.83
2022-09-11T15:39:31.990Z,21.93
2022-09-11T15:41:58.435Z,21.97
2022-09-11T15:44:27.410Z,21.77
2022-09-11T15:46:55.376Z,21.94
2022-09-11T15:49:23.338Z,21.88
2022-09-11T15:51:51.647Z,21.79
2022-09-11T15:54:18.422Z,21.79
2022-09-11T15:56:46.284Z,21.82
2022-09-11T15:59:15.153Z,21.92
2022-09-11T16:01:42.670Z,21.90
2022-09-11T16:04:11.677Z,21.83
2022-09-11T16:06:40.669Z,21.81
2022-09-11T16:09:11.127Z,21.78
2022-09-11T16:11:39.815Z,21.58
2022-09-11T16:14:06.868Z,21.62
2022-09-11T16:16:34.311Z,21.48
2022-09-11T16:19:01.677Z,21.49
2022-09-11T16:21:28.581Z,21.37
2022-09-11T16:24:00.762Z,21.32
2022-09-11T16:26:28.978Z,21.30
2022-09-11T16:28:55.531Z,21.29
2022-09-11T16:31:21.998Z,21.27
2022-09-11T16:33:49.907Z,21.27
2022-09-11T16:36:21.118Z,21.22
2022-09-11T16:38:50.179Z,21.17
2022-09-11T16:41:21.426Z,21.07
2022-09-11T16:43:50.883Z,20.95
2022-09-11T16:46:22.798Z,20.88
2022-09-11T16:48:53.968Z,20.89
2022-09-11T16:51:22.240Z,20.86
2022-09-11T16:53:49.249Z,20.76
2022-09-11T16:56:18.916Z,20.67
2022-09-11T16:58:46.569Z,20.63
2022-09-11T17:01:19.355Z,20.53
2022-09-11T17:03:48.102Z,20.51
2022-09-11T17:06:16.191Z,20.41
2022-09-11T17:08:44.675Z,20.27
2022-09-11T17:11:13.979Z,20.05
2022-09-11T17:13:42.548Z,19.80
2022-09-11T17:16:16.087Z,19.60
2022-09-11T17:18:48.628Z,19.37
2022-09-11T17:21:16.289Z,19.06
2022-09-11T17:23:42.741Z,18.83
2022-09-11T17:26:12.524Z,18.69
2022-09-11T17:28:40.359Z,18.55
2022-09-11T17:31:09.052Z,18.39
2022-09-11T17:33:38.461Z,18.26
2022-09-11T17:36:06.002Z,18.12
2022-09-11T17:38:32.887Z,18.03
2022-09-11T17:41:01.674Z,17.92
2022-09-11T17:43:28.089Z,17.73
2022-09-11T17:46:07.190Z,17.52
2022-09-11T17:48:33.778Z,17.36
2022-09-11T17:51:06.713Z,17.21
2022-09-11T17:53:38.481Z,17.03
2022-09-11T17:56:09.688Z,16.89
2022-09-11T17:58:37.065Z,16.71
2022-09-11T18:01:04.166Z,16.62
2022-09-11T18:03:31.742Z,16.46
2022-09-11T18:05:59.597Z,16.52
2022-09-11T18:08:27.273Z,16.33
2022-09-11T18:10:59.231Z,16.17
2022-09-11T18:13:27.689Z,16.03
2022-09-11T18:15:56.096Z,15.97
2022-09-11T18:18:23.631Z,15.90
2022-09-11T18:20:53.811Z,15.75
2022-09-11T18:23:23.908Z,15.66
2022-09-11T18:25:51.440Z,15.59
2022-09-11T18:28:20.138Z,15.53
2022-09-11T18:30:47.288Z,15.48
2022-09-11T18:33:16.526Z,15.40
2022-09-11T18:35:44.023Z,15.24
2022-09-11T18:38:10.794Z,15.17
2022-09-11T18:40:37.524Z,15.15
2022-09-11T18:43:05.347Z,15.11
2022-09-11T18:45:35.467Z,15.11
2022-09-11T18:48:03.301Z,15.03
2022-09-11T18:50:29.923Z,15.00
2022-09-11T18:52:56.562Z,14.89
2022-09-11T18:55:22.995Z,14.85
2022-09-11T18:57:50.578Z,14.82
2022-09-11T19:00:18.290Z,14.74
2022-09-11T19:02:46.675Z,14.68
2022-09-11T19:05:15.917Z,14.63
2022-09-11T19:07:43.885Z,14.58
2022-09-11T19:10:12.542Z,14.52
2022-09-11T19:12:40.769Z,14.36
2022-09-11T19:15:08.843Z,14.29
2022-09-11T19:17:36.739Z,14.15
2022-09-11T19:20:09.620Z,14.03
2022-09-11T19:22:36.231Z,14.01
2022-09-11T19:25:02.797Z,14.02
2022-09-11T19:27:31.575Z,14.00
2022-09-11T19:29:58.234Z,14.00
2022-09-11T19:32:25.289Z,13.97
2022-09-11T19:34:51.790Z,13.91
2022-09-11T19:37:20.898Z,13.85
2022-09-11T19:39:51.817Z,13.85
2022-09-11T19:42:18.857Z,13.80
2022-09-11T19:44:45.456Z,13.76
2022-09-11T19:47:12.419Z,13.72
2022-09-11T19:49:38.833Z,13.63
2022-09-11T19:52:06.458Z,13.61
2022-09-11T19:54:34.583Z,13.60
2022-09-11T19:57:02.228Z,13.59
2022-09-11T19:59:28.665Z,13.56
2022-09-11T20:01:55.210Z,13.50
2022-09-11T20:04:22.042Z,13.48
2022-09-11T20:09:30.480Z,13.29
2022-09-11T20:12:00.519Z,13.24
2022-09-11T20:14:27.565Z,13.24
2022-09-11T20:16:54.114Z,13.23
2022-09-11T20:19:20.572Z,13.25
2022-09-11T20:21:47.056Z,13.24
2022-09-11T20:24:14.836Z,13.25
2022-09-11T20:26:41.378Z,13.26
2022-09-11T20:29:12.124Z,13.28
2022-09-11T20:31:48.684Z,13.25
2022-09-11T20:34:20.024Z,13.21
2022-09-11T20:36:46.875Z,13.21
2022-09-11T20:39:14.343Z,13.16
2022-09-11T20:41:41.134Z,13.12
2022-09-11T20:44:07.987Z,13.11
2022-09-11T20:46:34.503Z,13.10
2022-09-11T20:49:01.058Z,13.05
2022-09-11T20:51:27.895Z,13.01
2022-09-11T20:53:55.572Z,12.99
2022-09-11T20:56:24.946Z,12.95
2022-09-11T20:58:52.043Z,12.94
2022-09-11T21:01:21.550Z,12.92
2022-09-11T21:03:56.325Z,12.90
2022-09-11T21:06:26.340Z,12.90
2022-09-11T21:08:55.851Z,12.91
2022-09-11T21:11:23.602Z,12.91
2022-09-11T21:13:50.087Z,12.91
2022-09-11T21:16:17.346Z,12.88
2022-09-11T21:18:53.191Z,12.90
2022-09-11T21:21:20.863Z,12.91
2022-09-11T21:23:48.088Z,12.90
2022-09-11T21:26:17.030Z,12.88
2022-09-11T21:28:43.558Z,12.86
2022-09-11T21:31:10.705Z,12.86
2022-09-11T21:33:38.134Z,12.87
2022-09-11T21:36:05.795Z,12.86
2022-09-11T21:38:32.903Z,12.86
2022-09-11T21:41:01.675Z,12.81
2022-09-11T21:43:28.675Z,12.70
2022-09-11T21:45:55.460Z,12.68
2022-09-11T21:48:22.085Z,12.65
2022-09-11T21:50:48.706Z,12.63
2022-09-11T21:53:15.597Z,12.57
2022-09-11T21:55:44.786Z,12.54
2022-09-11T21:58:17.824Z,12.53
2022-09-11T22:00:45.288Z,12.54
2022-09-11T22:03:12.429Z,12.58
2022-09-11T22:05:42.922Z,12.56
2022-09-11T22:08:10.479Z,12.51
2022-09-11T22:10:42.648Z,12.46
2022-09-11T22:13:10.510Z,12.45
2022-09-11T22:15:41.206Z,12.48
2022-09-11T22:18:08.241Z,12.46
2022-09-11T22:20:37.547Z,12.46
2022-09-11T22:23:04.916Z,12.44
2022-09-11T22:25:31.831Z,12.40
2022-09-11T22:27:58.377Z,12.35
2022-09-11T22:30:24.871Z,12.36
2022-09-11T22:32:51.374Z,12.33
2022-09-11T22:35:17.765Z,12.29
2022-09-11T22:37:44.261Z,12.22
2022-09-11T22:40:10.873Z,12.21
2022-09-11T22:42:37.407Z,12.11
2022-09-11T22:45:04.079Z,12.08
2022-09-11T22:47:30.689Z,12.09
2022-09-11T22:49:58.226Z,12.07
2022-09-11T22:52:24.800Z,12.04
2022-09-11T22:54:51.261Z,11.99
2022-09-11T22:57:17.693Z,11.98
2022-09-11T22:59:46.984Z,11.97
2022-09-11T23:02:14.791Z,11.96
2022-09-11T23:05:01.437Z,11.92
2022-09-11T23:07:28.037Z,11.90
2022-09-11T23:09:54.557Z,11.88
2022-09-11T23:12:20.916Z,11.84
2022-09-11T23:14:47.524Z,11.85
2022-09-11T23:17:14.130Z,11.84
2022-09-11T23:19:40.596Z,11.79
2022-09-11T23:22:07.048Z,11.79
2022-09-11T23:24:33.978Z,11.79
2022-09-11T23:27:00.341Z,11.76
2022-09-11T23:29:27.193Z,11.75
2022-09-11T23:31:56.394Z,11.72
2022-09-11T23:34:22.855Z,11.71
2022-09-11T23:36:49.225Z,11.67
2022-09-11T23:39:15.979Z,11.66
2022-09-11T23:41:42.382Z,11.61
2022-09-11T23:44:09.066Z,11.61
2022-09-11T23:46:35.485Z,11.56
2022-09-11T23:49:02.076Z,11.55
2022-09-11T23:51:28.514Z,11.55
2022-09-11T23:53:55.062Z,11.51
2022-09-11T23:56:22.367Z,11.50
2022-09-11T23:58:49.867Z,11.50
